sensor_id;sensor_type;location;lat;lon;timestamp;temperature;humidity
8214;DHT22;4148;47.974;7.824;2022-10-31T00:01:41;11.80;99.90
8214;DHT22;4148;47.974;7.824;2022-10-31T00:04:08;11.80;99.90
8214;DHT22;4148;47.974;7.824;2022-10-31T00:06:36;11.70;99.90
8214;DHT22;4148;47.974;7.824;2022-10-31T00:09:05;11.80;99.90
8214;DHT22;4148;47.974;7.824;2022-10-31T00:11:33;11.80;99.90
8214;DHT22;4148;47.974;7.824;2022-10-31T00:14:02;11.90;99.90
8214;DHT22;4148;47.974;7.824;2022-10-31T00:16:30;11.90;99.90
8214;DHT22;4148;47.974;7.824;2022-10-31T00:19:00;11.90;99.90
8214;DHT22;4148;47.974;7.824;2022-10-31T00:21:28;12.00;99.90
8214;DHT22;4148;47.974;7.824;2022-10-31T00:23:57;12.00;99.90
8214;DHT22;4148;47.974;7.824;2022-10-31T00:26:26;12.00;99.90
8214;DHT22;4148;47.974;7.824;2022-10-31T00:28:54;11.90;99.90
8214;DHT22;4148;47.974;7.824;2022-10-31T00:31:23;11.80;99.90
8214;DHT22;4148;47.974;7.824;2022-10-31T00:33:51;11.80;99.90
8214;DHT22;4148;47.974;7.824;2022-10-31T00:36:19;11.70;99.90
8214;DHT22;4148;47.974;7.824;2022-10-31T00:38:48;11.60;99.90
8214;DHT22;4148;47.974;7.824;2022-10-31T00:41:17;11.40;99.90
8214;DHT22;4148;47.974;7.824;2022-10-31T00:43:45;11.40;99.90
8214;DHT22;4148;47.974;7.824;2022-10-31T00:46:13;11.40;99.90
8214;DHT22;4148;47.974;7.824;2022-10-31T00:48:43;11.40;99.90
8214;DHT22;4148;47.974;7.824;2022-10-31T00:51:11;11.40;99.90
8214;DHT22;4148;47.974;7.824;2022-10-31T00:53:38;11.40;99.90
8214;DHT22;4148;47.974;7.824;2022-10-31T00:56:06;11.40;99.90
8214;DHT22;4148;47.974;7.824;2022-10-31T00:58:34;11.50;99.90
8214;DHT22;4148;47.974;7.824;2022-10-31T01:01:03;11.50;99.90
8214;DHT22;4148;47.974;7.824;2022-10-31T01:03:32;11.50;99.90
8214;DHT22;4148;47.974;7.824;2022-10-31T01:06:03;11.40;99.90
8214;DHT22;4148;47.974;7.824;2022-10-31T01:08:32;11.30;99.90
8214;DHT22;4148;47.974;7.824;2022-10-31T01:11:06;11.40;99.90
8214;DHT22;4148;47.974;7.824;2022-10-31T01:13:35;11.30;99.90
8214;DHT22;4148;47.974;7.824;2022-10-31T01:16:05;11.30;99.90
8214;DHT22;4148;47.974;7.824;2022-10-31T01:18:33;11.20;99.90
8214;DHT22;4148;47.974;7.824;2022-10-31T01:21:05;11.20;99.90
8214;DHT22;4148;47.974;7.824;2022-10-31T01:23:33;11.20;99.90
8214;DHT22;4148;47.974;7.824;2022-10-31T01:26:05;11.20;99.90
8214;DHT22;4148;47.974;7.824;2022-10-31T01:28:34;11.30;99.90
8214;DHT22;4148;47.974;7.824;2022-10-31T01:31:06;11.30;99.90
8214;DHT22;4148;47.974;7.824;2022-10-31T01:33:34;11.30;99.90
8214;DHT22;4148;47.974;7.824;2022-10-31T01:36:16;11.30;99.90
8214;DHT22;4148;47.974;7.824;2022-10-31T01:38:45;11.20;99.90
8214;DHT22;4148;47.974;7.824;2022-10-31T01:41:14;11.10;99.90
8214;DHT22;4148;47.974;7.824;2022-10-31T01:43:49;11.00;99.90
8214;DHT22;4148;47.974;7.824;2022-10-31T01:46:21;11.00;99.90
8214;DHT22;4148;47.974;7.824;2022-10-31T01:48:50;11.00;99.90
8214;DHT22;4148;47.974;7.824;2022-10-31T01:51:22;10.90;99.90
8214;DHT22;4148;47.974;7.824;2022-10-31T01:53:52;10.90;99.90
8214;DHT22;4148;47.974;7.824;2022-10-31T01:56:22;10.90;99.90
8214;DHT22;4148;47.974;7.824;2022-10-31T01:58:50;10.90;99.90
8214;DHT22;4148;47.974;7.824;2022-10-31T02:01:19;10.90;99.90
8214;DHT22;4148;47.974;7.824;2022-10-31T02:03:47;10.90;99.90
8214;DHT22;4148;47.974;7.824;2022-10-31T02:06:25;10.90;99.90
8214;DHT22;4148;47.974;7.824;2022-10-31T02:08:55;11.00;99.90
8214;DHT22;4148;47.974;7.824;2022-10-31T02:11:25;11.20;99.90
8214;DHT22;4148;47.974;7.824;2022-10-31T02:13:54;11.20;99.90
8214;DHT22;4148;47.974;7.824;2022-10-31T02:16:22;11.10;99.90
8214;DHT22;4148;47.974;7.824;2022-10-31T02:18:49;11.00;99.90
8214;DHT22;4148;47.974;7.824;2022-10-31T02:21:22;11.00;99.90
8214;DHT22;4148;47.974;7.824;2022-10-31T02:27:09;11.20;99.90
8214;DHT22;4148;47.974;7.824;2022-10-31T02:30:03;11.30;99.90
8214;DHT22;4148;47.974;7.824;2022-10-31T02:33:00;11.30;99.90
8214;DHT22;4148;47.974;7.824;2022-10-31T02:35:40;11.20;99.90
8214;DHT22;4148;47.974;7.824;2022-10-31T02:38:21;11.10;99.90
8214;DHT22;4148;47.974;7.824;2022-10-31T02:40:56;11.00;99.90
8214;DHT22;4148;47.974;7.824;2022-10-31T02:43:29;11.00;99.90
8214;DHT22;4148;47.974;7.824;2022-10-31T02:46:05;10.90;99.90
8214;DHT22;4148;47.974;7.824;2022-10-31T02:48:38;10.90;99.90
8214;DHT22;4148;47.974;7.824;2022-10-31T02:51:08;10.90;99.90
8214;DHT22;4148;47.974;7.824;2022-10-31T02:53:37;10.90;99.90
8214;DHT22;4148;47.974;7.824;2022-10-31T02:56:10;10.90;99.90
8214;DHT22;4148;47.974;7.824;2022-10-31T02:58:42;10.90;99.90
8214;DHT22;4148;47.974;7.824;2022-10-31T03:01:31;10.80;99.90
8214;DHT22;4148;47.974;7.824;2022-10-31T03:04:20;10.80;99.90
8214;DHT22;4148;47.974;7.824;2022-10-31T03:06:56;10.90;99.90
8214;DHT22;4148;47.974;7.824;2022-10-31T03:09:29;10.90;99.90
8214;DHT22;4148;47.974;7.824;2022-10-31T03:11:59;10.80;99.90
8214;DHT22;4148;47.974;7.824;2022-10-31T03:14:38;10.70;99.90
8214;DHT22;4148;47.974;7.824;2022-10-31T03:17:12;10.70;99.90
8214;DHT22;4148;47.974;7.824;2022-10-31T03:19:46;10.80;99.90
8214;DHT22;4148;47.974;7.824;2022-10-31T03:22:17;10.90;99.90
8214;DHT22;4148;47.974;7.824;2022-10-31T03:24:48;10.80;99.90
8214;DHT22;4148;47.974;7.824;2022-10-31T03:27:18;11.00;99.90
8214;DHT22;4148;47.974;7.824;2022-10-31T03:29:49;10.90;99.90
8214;DHT22;4148;47.974;7.824;2022-10-31T03:32:20;10.90;99.90
8214;DHT22;4148;47.974;7.824;2022-10-31T03:34:53;10.90;99.90
8214;DHT22;4148;47.974;7.824;2022-10-31T03:37:25;11.00;99.90
8214;DHT22;4148;47.974;7.824;2022-10-31T03:39:55;10.80;99.90
8214;DHT22;4148;47.974;7.824;2022-10-31T03:42:28;10.70;99.90
8214;DHT22;4148;47.974;7.824;2022-10-31T03:45:00;10.60;99.90
8214;DHT22;4148;47.974;7.824;2022-10-31T03:47:29;10.60;99.90
8214;DHT22;4148;47.974;7.824;2022-10-31T03:49:59;10.60;99.90
8214;DHT22;4148;47.974;7.824;2022-10-31T03:52:30;10.50;99.90
8214;DHT22;4148;47.974;7.824;2022-10-31T03:55:07;10.50;99.90
8214;DHT22;4148;47.974;7.824;2022-10-31T03:57:40;10.50;99.90
8214;DHT22;4148;47.974;7.824;2022-10-31T04:00:13;10.50;99.90
8214;DHT22;4148;47.974;7.824;2022-10-31T04:02:45;10.50;99.90
8214;DHT22;4148;47.974;7.824;2022-10-31T04:05:17;10.40;99.90
8214;DHT22;4148;47.974;7.824;2022-10-31T04:07:48;10.50;99.90
8214;DHT22;4148;47.974;7.824;2022-10-31T04:10:19;10.40;99.90
8214;DHT22;4148;47.974;7.824;2022-10-31T04:12:50;10.40;99.90
8214;DHT22;4148;47.974;7.824;2022-10-31T04:15:21;10.40;99.90
8214;DHT22;4148;47.974;7.824;2022-10-31T04:17:52;10.40;99.90
8214;DHT22;4148;47.974;7.824;2022-10-31T04:20:31;10.40;99.90
8214;DHT22;4148;47.974;7.824;2022-10-31T04:23:00;10.40;99.90
8214;DHT22;4148;47.974;7.824;2022-10-31T04:25:28;10.40;99.90
8214;DHT22;4148;47.974;7.824;2022-10-31T04:27:55;10.40;99.90
8214;DHT22;4148;47.974;7.824;2022-10-31T04:30:24;10.40;99.90
8214;DHT22;4148;47.974;7.824;2022-10-31T04:32:52;10.40;99.90
8214;DHT22;4148;47.974;7.824;2022-10-31T04:35:20;10.50;99.90
8214;DHT22;4148;47.974;7.824;2022-10-31T04:37:49;10.50;99.90
8214;DHT22;4148;47.974;7.824;2022-10-31T04:40:16;10.40;99.90
8214;DHT22;4148;47.974;7.824;2022-10-31T04:42:44;10.40;99.90
8214;DHT22;4148;47.974;7.824;2022-10-31T04:45:12;10.40;99.90
8214;DHT22;4148;47.974;7.824;2022-10-31T04:47:46;10.30;99.90
8214;DHT22;4148;47.974;7.824;2022-10-31T04:50:15;10.20;99.90
8214;DHT22;4148;47.974;7.824;2022-10-31T04:52:44;10.20;99.90
8214;DHT22;4148;47.974;7.824;2022-10-31T04:55:14;10.20;99.90
8214;DHT22;4148;47.974;7.824;2022-10-31T04:57:42;10.30;99.90
8214;DHT22;4148;47.974;7.824;2022-10-31T05:00:12;10.20;99.90
8214;DHT22;4148;47.974;7.824;2022-10-31T05:02:43;10.20;99.90
8214;DHT22;4148;47.974;7.824;2022-10-31T05:05:12;10.20;99.90
8214;DHT22;4148;47.974;7.824;2022-10-31T05:07:40;10.30;99.90
8214;DHT22;4148;47.974;7.824;2022-10-31T05:10:09;10.40;99.90
8214;DHT22;4148;47.974;7.824;2022-10-31T05:12:45;10.30;99.90
8214;DHT22;4148;47.974;7.824;2022-10-31T05:15:14;10.30;99.90
8214;DHT22;4148;47.974;7.824;2022-10-31T05:17:41;10.30;99.90
8214;DHT22;4148;47.974;7.824;2022-10-31T05:20:10;10.30;99.90
8214;DHT22;4148;47.974;7.824;2022-10-31T05:22:42;10.20;99.90
8214;DHT22;4148;47.974;7.824;2022-10-31T05:25:11;10.30;99.90
8214;DHT22;4148;47.974;7.824;2022-10-31T05:27:41;10.30;99.90
8214;DHT22;4148;47.974;7.824;2022-10-31T05:30:10;10.20;99.90
8214;DHT22;4148;47.974;7.824;2022-10-31T05:32:39;10.20;99.90
8214;DHT22;4148;47.974;7.824;2022-10-31T05:35:08;10.20;99.90
8214;DHT22;4148;47.974;7.824;2022-10-31T05:37:37;10.10;99.90
8214;DHT22;4148;47.974;7.824;2022-10-31T05:40:07;10.10;99.90
8214;DHT22;4148;47.974;7.824;2022-10-31T05:42:37;10.10;99.90
8214;DHT22;4148;47.974;7.824;2022-10-31T05:45:08;10.10;99.90
8214;DHT22;4148;47.974;7.824;2022-10-31T05:47:35;10.10;99.90
8214;DHT22;4148;47.974;7.824;2022-10-31T05:50:04;10.10;99.90
8214;DHT22;4148;47.974;7.824;2022-10-31T05:52:32;10.10;99.90
8214;DHT22;4148;47.974;7.824;2022-10-31T05:55:00;10.10;99.90
8214;DHT22;4148;47.974;7.824;2022-10-31T05:57:32;10.10;99.90
8214;DHT22;4148;47.974;7.824;2022-10-31T06:00:01;10.30;99.90
8214;DHT22;4148;47.974;7.824;2022-10-31T06:02:30;10.20;99.90
8214;DHT22;4148;47.974;7.824;2022-10-31T06:05:00;10.20;99.90
8214;DHT22;4148;47.974;7.824;2022-10-31T06:07:32;10.20;99.90
8214;DHT22;4148;47.974;7.824;2022-10-31T06:10:01;10.10;99.90
8214;DHT22;4148;47.974;7.824;2022-10-31T06:12:29;10.20;99.90
8214;DHT22;4148;47.974;7.824;2022-10-31T06:14:57;10.20;99.90
8214;DHT22;4148;47.974;7.824;2022-10-31T06:17:25;10.20;99.90
8214;DHT22;4148;47.974;7.824;2022-10-31T06:19:54;10.20;99.90
8214;DHT22;4148;47.974;7.824;2022-10-31T06:22:22;10.30;99.90
8214;DHT22;4148;47.974;7.824;2022-10-31T06:24:50;10.20;99.90
8214;DHT22;4148;47.974;7.824;2022-10-31T06:27:18;10.30;99.90
8214;DHT22;4148;47.974;7.824;2022-10-31T06:29:46;10.30;99.90
8214;DHT22;4148;47.974;7.824;2022-10-31T06:32:14;10.40;99.90
8214;DHT22;4148;47.974;7.824;2022-10-31T06:34:42;10.50;99.90
8214;DHT22;4148;47.974;7.824;2022-10-31T06:37:12;10.60;99.90
8214;DHT22;4148;47.974;7.824;2022-10-31T06:39:40;10.60;99.90
8214;DHT22;4148;47.974;7.824;2022-10-31T06:42:08;10.50;99.90
8214;DHT22;4148;47.974;7.824;2022-10-31T06:44:35;10.60;99.90
8214;DHT22;4148;47.974;7.824;2022-10-31T06:47:05;10.60;99.90
8214;DHT22;4148;47.974;7.824;2022-10-31T06:49:33;10.60;99.90
8214;DHT22;4148;47.974;7.824;2022-10-31T06:52:01;10.60;99.90
8214;DHT22;4148;47.974;7.824;2022-10-31T06:54:30;10.60;99.90
8214;DHT22;4148;47.974;7.824;2022-10-31T06:56:58;10.80;99.90
8214;DHT22;4148;47.974;7.824;2022-10-31T06:59:26;11.00;99.90
8214;DHT22;4148;47.974;7.824;2022-10-31T07:01:54;11.00;99.90
8214;DHT22;4148;47.974;7.824;2022-10-31T07:04:22;10.90;99.90
8214;DHT22;4148;47.974;7.824;2022-10-31T07:06:51;11.00;99.90
8214;DHT22;4148;47.974;7.824;2022-10-31T07:09:19;11.00;99.90
8214;DHT22;4148;47.974;7.824;2022-10-31T07:11:48;11.10;99.90
8214;DHT22;4148;47.974;7.824;2022-10-31T07:14:19;11.40;99.90
8214;DHT22;4148;47.974;7.824;2022-10-31T07:16:48;11.50;99.90
8214;DHT22;4148;47.974;7.824;2022-10-31T07:19:17;11.50;99.90
8214;DHT22;4148;47.974;7.824;2022-10-31T07:21:44;11.50;99.90
8214;DHT22;4148;47.974;7.824;2022-10-31T07:24:12;11.70;99.90
8214;DHT22;4148;47.974;7.824;2022-10-31T07:26:40;11.70;99.90
8214;DHT22;4148;47.974;7.824;2022-10-31T07:29:10;11.80;99.90
8214;DHT22;4148;47.974;7.824;2022-10-31T07:31:38;11.80;99.90
8214;DHT22;4148;47.974;7.824;2022-10-31T07:34:06;11.80;99.90
8214;DHT22;4148;47.974;7.824;2022-10-31T07:36:34;11.80;99.90
8214;DHT22;4148;47.974;7.824;2022-10-31T07:39:02;11.80;99.90
8214;DHT22;4148;47.974;7.824;2022-10-31T07:41:30;11.80;99.90
8214;DHT22;4148;47.974;7.824;2022-10-31T07:43:58;11.90;99.90
8214;DHT22;4148;47.974;7.824;2022-10-31T07:46:27;12.00;99.90
8214;DHT22;4148;47.974;7.824;2022-10-31T07:48:55;12.10;99.90
8214;DHT22;4148;47.974;7.824;2022-10-31T07:51:22;12.30;99.90
8214;DHT22;4148;47.974;7.824;2022-10-31T07:53:50;12.40;99.90
8214;DHT22;4148;47.974;7.824;2022-10-31T07:56:18;12.50;99.90
8214;DHT22;4148;47.974;7.824;2022-10-31T07:58:46;12.60;99.90
8214;DHT22;4148;47.974;7.824;2022-10-31T08:01:14;12.60;99.90
8214;DHT22;4148;47.974;7.824;2022-10-31T08:03:43;12.70;99.90
8214;DHT22;4148;47.974;7.824;2022-10-31T08:06:11;12.80;99.90
8214;DHT22;4148;47.974;7.824;2022-10-31T08:08:39;12.90;99.90
8214;DHT22;4148;47.974;7.824;2022-10-31T08:11:07;13.00;99.90
8214;DHT22;4148;47.974;7.824;2022-10-31T08:13:34;13.10;99.90
8214;DHT22;4148;47.974;7.824;2022-10-31T08:16:03;13.20;99.90
8214;DHT22;4148;47.974;7.824;2022-10-31T08:18:31;13.20;99.90
8214;DHT22;4148;47.974;7.824;2022-10-31T08:21:00;13.30;99.90
8214;DHT22;4148;47.974;7.824;2022-10-31T08:23:28;13.40;99.90
8214;DHT22;4148;47.974;7.824;2022-10-31T08:25:57;13.50;99.90
8214;DHT22;4148;47.974;7.824;2022-10-31T08:28:25;13.50;99.90
8214;DHT22;4148;47.974;7.824;2022-10-31T08:30:53;13.60;99.90
8214;DHT22;4148;47.974;7.824;2022-10-31T08:33:21;13.60;99.90
8214;DHT22;4148;47.974;7.824;2022-10-31T08:35:48;13.70;99.90
8214;DHT22;4148;47.974;7.824;2022-10-31T08:38:18;13.80;99.90
8214;DHT22;4148;47.974;7.824;2022-10-31T08:40:48;13.80;99.90
8214;DHT22;4148;47.974;7.824;2022-10-31T08:43:17;13.90;99.90
8214;DHT22;4148;47.974;7.824;2022-10-31T08:45:48;14.00;99.90
8214;DHT22;4148;47.974;7.824;2022-10-31T08:48:17;14.10;99.90
8214;DHT22;4148;47.974;7.824;2022-10-31T08:50:45;14.10;99.90
8214;DHT22;4148;47.974;7.824;2022-10-31T08:53:14;14.10;99.90
8214;DHT22;4148;47.974;7.824;2022-10-31T08:55:45;14.10;99.90
8214;DHT22;4148;47.974;7.824;2022-10-31T08:58:14;14.20;99.90
8214;DHT22;4148;47.974;7.824;2022-10-31T09:00:43;14.30;99.90
8214;DHT22;4148;47.974;7.824;2022-10-31T09:03:13;14.40;99.90
8214;DHT22;4148;47.974;7.824;2022-10-31T09:05:41;14.40;99.90
8214;DHT22;4148;47.974;7.824;2022-10-31T09:08:09;14.50;99.90
8214;DHT22;4148;47.974;7.824;2022-10-31T09:10:44;14.50;99.90
8214;DHT22;4148;47.974;7.824;2022-10-31T09:13:13;14.60;99.90
8214;DHT22;4148;47.974;7.824;2022-10-31T09:15:43;14.60;99.90
8214;DHT22;4148;47.974;7.824;2022-10-31T09:18:12;14.70;99.90
8214;DHT22;4148;47.974;7.824;2022-10-31T09:20:41;14.80;99.90
8214;DHT22;4148;47.974;7.824;2022-10-31T09:23:11;14.90;99.90
8214;DHT22;4148;47.974;7.824;2022-10-31T09:25:39;15.00;99.90
8214;DHT22;4148;47.974;7.824;2022-10-31T09:28:18;15.20;99.90
8214;DHT22;4148;47.974;7.824;2022-10-31T09:30:47;15.20;99.90
8214;DHT22;4148;47.974;7.824;2022-10-31T09:33:16;15.30;99.90
8214;DHT22;4148;47.974;7.824;2022-10-31T09:35:44;15.40;99.90
8214;DHT22;4148;47.974;7.824;2022-10-31T09:38:13;15.50;99.90
8214;DHT22;4148;47.974;7.824;2022-10-31T09:40:43;15.50;99.90
8214;DHT22;4148;47.974;7.824;2022-10-31T09:43:17;15.50;99.90
8214;DHT22;4148;47.974;7.824;2022-10-31T09:45:54;15.60;99.90
8214;DHT22;4148;47.974;7.824;2022-10-31T09:48:44;15.70;99.90
8214;DHT22;4148;47.974;7.824;2022-10-31T09:51:17;15.70;99.90
8214;DHT22;4148;47.974;7.824;2022-10-31T09:53:48;15.70;99.90
8214;DHT22;4148;47.974;7.824;2022-10-31T09:56:19;15.80;99.90
8214;DHT22;4148;47.974;7.824;2022-10-31T09:58:51;15.90;99.90
8214;DHT22;4148;47.974;7.824;2022-10-31T10:01:31;16.10;99.90
8214;DHT22;4148;47.974;7.824;2022-10-31T10:04:05;16.30;99.90
8214;DHT22;4148;47.974;7.824;2022-10-31T10:06:44;16.40;99.90
8214;DHT22;4148;47.974;7.824;2022-10-31T10:09:14;16.70;99.90
8214;DHT22;4148;47.974;7.824;2022-10-31T10:11:51;16.80;99.90
8214;DHT22;4148;47.974;7.824;2022-10-31T10:14:34;16.90;99.90
8214;DHT22;4148;47.974;7.824;2022-10-31T10:17:16;16.90;99.90
8214;DHT22;4148;47.974;7.824;2022-10-31T10:22:59;16.90;99.90
8214;DHT22;4148;47.974;7.824;2022-10-31T10:25:34;16.80;99.90
8214;DHT22;4148;47.974;7.824;2022-10-31T10:28:14;16.70;99.90
8214;DHT22;4148;47.974;7.824;2022-10-31T10:30:48;16.60;99.90
8214;DHT22;4148;47.974;7.824;2022-10-31T10:33:20;16.60;99.90
8214;DHT22;4148;47.974;7.824;2022-10-31T10:35:52;16.60;99.90
8214;DHT22;4148;47.974;7.824;2022-10-31T10:38:25;16.50;99.90
8214;DHT22;4148;47.974;7.824;2022-10-31T10:40:55;16.40;99.90
8214;DHT22;4148;47.974;7.824;2022-10-31T10:43:26;16.40;99.90
8214;DHT22;4148;47.974;7.824;2022-10-31T10:46:13;16.40;99.90
8214;DHT22;4148;47.974;7.824;2022-10-31T10:49:06;16.20;99.90
8214;DHT22;4148;47.974;7.824;2022-10-31T10:51:40;16.20;99.90
8214;DHT22;4148;47.974;7.824;2022-10-31T10:54:43;16.20;99.90
8214;DHT22;4148;47.974;7.824;2022-10-31T10:57:22;16.10;99.90
8214;DHT22;4148;47.974;7.824;2022-10-31T10:59:51;16.00;99.90
8214;DHT22;4148;47.974;7.824;2022-10-31T11:02:26;16.10;99.90
8214;DHT22;4148;47.974;7.824;2022-10-31T11:04:56;16.20;99.90
8214;DHT22;4148;47.974;7.824;2022-10-31T11:07:24;16.20;99.90
8214;DHT22;4148;47.974;7.824;2022-10-31T11:10:03;16.20;99.90
8214;DHT22;4148;47.974;7.824;2022-10-31T11:12:32;16.30;99.90
8214;DHT22;4148;47.974;7.824;2022-10-31T11:15:07;16.40;99.90
8214;DHT22;4148;47.974;7.824;2022-10-31T11:17:39;16.40;99.90
8214;DHT22;4148;47.974;7.824;2022-10-31T11:20:26;16.50;99.90
8214;DHT22;4148;47.974;7.824;2022-10-31T11:23:17;16.50;99.90
8214;DHT22;4148;47.974;7.824;2022-10-31T11:25:49;16.60;99.90
8214;DHT22;4148;47.974;7.824;2022-10-31T11:28:18;16.60;99.90
8214;DHT22;4148;47.974;7.824;2022-10-31T11:30:48;16.70;99.90
8214;DHT22;4148;47.974;7.824;2022-10-31T11:33:26;16.70;99.90
8214;DHT22;4148;47.974;7.824;2022-10-31T11:35:56;16.90;99.90
8214;DHT22;4148;47.974;7.824;2022-10-31T11:38:29;17.00;99.90
8214;DHT22;4148;47.974;7.824;2022-10-31T11:41:07;17.40;99.90
8214;DHT22;4148;47.974;7.824;2022-10-31T11:43:37;17.70;99.90
8214;DHT22;4148;47.974;7.824;2022-10-31T11:46:10;17.80;99.90
8214;DHT22;4148;47.974;7.824;2022-10-31T11:48:46;17.80;99.90
8214;DHT22;4148;47.974;7.824;2022-10-31T11:51:20;17.80;99.90
8214;DHT22;4148;47.974;7.824;2022-10-31T11:53:51;18.00;99.90
8214;DHT22;4148;47.974;7.824;2022-10-31T11:56:26;18.20;99.90
8214;DHT22;4148;47.974;7.824;2022-10-31T11:58:55;18.40;99.90
8214;DHT22;4148;47.974;7.824;2022-10-31T12:01:25;18.40;99.90
8214;DHT22;4148;47.974;7.824;2022-10-31T12:04:03;18.40;99.90
8214;DHT22;4148;47.974;7.824;2022-10-31T12:06:35;18.30;99.90
8214;DHT22;4148;47.974;7.824;2022-10-31T12:09:15;18.60;99.90
8214;DHT22;4148;47.974;7.824;2022-10-31T12:12:04;18.80;99.90
8214;DHT22;4148;47.974;7.824;2022-10-31T12:14:39;19.00;99.90
8214;DHT22;4148;47.974;7.824;2022-10-31T12:17:14;19.20;99.90
8214;DHT22;4148;47.974;7.824;2022-10-31T12:19:51;19.20;99.90
8214;DHT22;4148;47.974;7.824;2022-10-31T12:22:29;19.30;99.90
8214;DHT22;4148;47.974;7.824;2022-10-31T12:28:03;19.40;99.90
8214;DHT22;4148;47.974;7.824;2022-10-31T12:30:46;19.40;99.90
8214;DHT22;4148;47.974;7.824;2022-10-31T12:33:32;19.30;99.90
8214;DHT22;4148;47.974;7.824;2022-10-31T12:39:29;19.20;99.90
8214;DHT22;4148;47.974;7.824;2022-10-31T12:42:05;19.10;99.90
8214;DHT22;4148;47.974;7.824;2022-10-31T12:44:55;19.10;99.90
8214;DHT22;4148;47.974;7.824;2022-10-31T12:47:44;19.00;99.90
8214;DHT22;4148;47.974;7.824;2022-10-31T12:50:27;19.00;99.90
8214;DHT22;4148;47.974;7.824;2022-10-31T12:53:06;18.90;99.90
8214;DHT22;4148;47.974;7.824;2022-10-31T12:55:47;18.90;99.90
8214;DHT22;4148;47.974;7.824;2022-10-31T12:58:23;18.80;99.90
8214;DHT22;4148;47.974;7.824;2022-10-31T13:01:02;18.70;99.90
8214;DHT22;4148;47.974;7.824;2022-10-31T13:03:38;18.70;99.90
8214;DHT22;4148;47.974;7.824;2022-10-31T13:06:17;18.60;99.90
8214;DHT22;4148;47.974;7.824;2022-10-31T13:08:50;18.50;99.90
8214;DHT22;4148;47.974;7.824;2022-10-31T13:11:23;18.50;99.90
8214;DHT22;4148;47.974;7.824;2022-10-31T13:13:59;18.40;99.90
8214;DHT22;4148;47.974;7.824;2022-10-31T13:16:30;18.40;99.90
8214;DHT22;4148;47.974;7.824;2022-10-31T13:19:05;18.30;99.90
8214;DHT22;4148;47.974;7.824;2022-10-31T13:21:39;18.30;99.90
8214;DHT22;4148;47.974;7.824;2022-10-31T13:24:13;18.30;99.90
8214;DHT22;4148;47.974;7.824;2022-10-31T13:26:47;18.30;99.90
8214;DHT22;4148;47.974;7.824;2022-10-31T13:29:20;18.30;99.90
8214;DHT22;4148;47.974;7.824;2022-10-31T13:31:55;18.40;99.90
8214;DHT22;4148;47.974;7.824;2022-10-31T13:34:26;18.40;99.90
8214;DHT22;4148;47.974;7.824;2022-10-31T13:37:05;18.50;99.90
8214;DHT22;4148;47.974;7.824;2022-10-31T13:39:50;18.60;99.90
8214;DHT22;4148;47.974;7.824;2022-10-31T13:42:23;18.70;99.90
8214;DHT22;4148;47.974;7.824;2022-10-31T13:44:51;18.70;99.90
8214;DHT22;4148;47.974;7.824;2022-10-31T13:47:25;18.70;99.90
8214;DHT22;4148;47.974;7.824;2022-10-31T13:50:05;18.70;99.90
8214;DHT22;4148;47.974;7.824;2022-10-31T13:52:33;18.60;99.90
8214;DHT22;4148;47.974;7.824;2022-10-31T13:55:03;18.60;99.90
8214;DHT22;4148;47.974;7.824;2022-10-31T13:57:33;18.60;99.90
8214;DHT22;4148;47.974;7.824;2022-10-31T14:00:06;18.50;99.90
8214;DHT22;4148;47.974;7.824;2022-10-31T14:02:35;18.50;99.90
8214;DHT22;4148;47.974;7.824;2022-10-31T14:05:06;18.40;99.90
8214;DHT22;4148;47.974;7.824;2022-10-31T14:07:46;18.40;99.90
8214;DHT22;4148;47.974;7.824;2022-10-31T14:10:24;18.30;99.90
8214;DHT22;4148;47.974;7.824;2022-10-31T14:12:53;18.20;99.90
8214;DHT22;4148;47.974;7.824;2022-10-31T14:15:30;18.20;99.90
8214;DHT22;4148;47.974;7.824;2022-10-31T14:18:00;18.20;99.90
8214;DHT22;4148;47.974;7.824;2022-10-31T14:20:36;18.20;99.90
8214;DHT22;4148;47.974;7.824;2022-10-31T14:23:33;18.10;99.90
8214;DHT22;4148;47.974;7.824;2022-10-31T14:26:32;18.10;99.90
8214;DHT22;4148;47.974;7.824;2022-10-31T14:29:01;18.10;99.90
8214;DHT22;4148;47.974;7.824;2022-10-31T14:31:32;18.20;99.90
8214;DHT22;4148;47.974;7.824;2022-10-31T14:36:59;18.20;99.90
8214;DHT22;4148;47.974;7.824;2022-10-31T14:39:31;18.20;99.90
8214;DHT22;4148;47.974;7.824;2022-10-31T14:42:16;18.30;99.90
8214;DHT22;4148;47.974;7.824;2022-10-31T14:45:05;18.30;99.90
8214;DHT22;4148;47.974;7.824;2022-10-31T14:47:41;18.30;99.90
8214;DHT22;4148;47.974;7.824;2022-10-31T14:50:21;18.30;99.90
8214;DHT22;4148;47.974;7.824;2022-10-31T14:52:53;18.30;99.90
8214;DHT22;4148;47.974;7.824;2022-10-31T14:55:23;18.30;99.90
8214;DHT22;4148;47.974;7.824;2022-10-31T14:57:57;18.30;99.90
8214;DHT22;4148;47.974;7.824;2022-10-31T15:00:26;18.30;99.90
8214;DHT22;4148;47.974;7.824;2022-10-31T15:03:06;18.20;99.90
8214;DHT22;4148;47.974;7.824;2022-10-31T15:05:42;18.20;99.90
8214;DHT22;4148;47.974;7.824;2022-10-31T15:08:25;18.10;99.90
8214;DHT22;4148;47.974;7.824;2022-10-31T15:10:54;18.00;99.90
8214;DHT22;4148;47.974;7.824;2022-10-31T15:13:23;17.90;99.90
8214;DHT22;4148;47.974;7.824;2022-10-31T15:15:53;17.80;99.90
8214;DHT22;4148;47.974;7.824;2022-10-31T15:18:25;17.80;99.90
8214;DHT22;4148;47.974;7.824;2022-10-31T15:20:55;17.70;99.90
8214;DHT22;4148;47.974;7.824;2022-10-31T15:23:24;17.60;99.90
8214;DHT22;4148;47.974;7.824;2022-10-31T15:25:58;17.50;99.90
8214;DHT22;4148;47.974;7.824;2022-10-31T15:28:28;17.40;99.90
8214;DHT22;4148;47.974;7.824;2022-10-31T15:30:58;17.30;99.90
8214;DHT22;4148;47.974;7.824;2022-10-31T15:33:28;17.20;99.90
8214;DHT22;4148;47.974;7.824;2022-10-31T15:36:04;17.10;99.90
8214;DHT22;4148;47.974;7.824;2022-10-31T15:38:32;17.00;99.90
8214;DHT22;4148;47.974;7.824;2022-10-31T15:41:02;16.90;99.90
8214;DHT22;4148;47.974;7.824;2022-10-31T15:43:34;16.80;99.90
8214;DHT22;4148;47.974;7.824;2022-10-31T15:46:06;16.70;99.90
8214;DHT22;4148;47.974;7.824;2022-10-31T15:48:34;16.60;99.90
8214;DHT22;4148;47.974;7.824;2022-10-31T15:51:03;16.60;99.90
8214;DHT22;4148;47.974;7.824;2022-10-31T15:53:36;16.50;99.90
8214;DHT22;4148;47.974;7.824;2022-10-31T15:56:07;16.40;99.90
8214;DHT22;4148;47.974;7.824;2022-10-31T15:58:42;16.40;99.90
8214;DHT22;4148;47.974;7.824;2022-10-31T16:01:21;16.30;99.90
8214;DHT22;4148;47.974;7.824;2022-10-31T16:04:00;16.20;99.90
8214;DHT22;4148;47.974;7.824;2022-10-31T16:06:29;16.10;99.90
8214;DHT22;4148;47.974;7.824;2022-10-31T16:08:57;16.00;99.90
8214;DHT22;4148;47.974;7.824;2022-10-31T16:11:31;15.90;99.90
8214;DHT22;4148;47.974;7.824;2022-10-31T16:14:04;15.80;99.90
8214;DHT22;4148;47.974;7.824;2022-10-31T16:16:40;15.70;99.90
8214;DHT22;4148;47.974;7.824;2022-10-31T16:19:17;15.70;99.90
8214;DHT22;4148;47.974;7.824;2022-10-31T16:21:48;15.60;99.90
8214;DHT22;4148;47.974;7.824;2022-10-31T16:24:19;15.50;99.90
8214;DHT22;4148;47.974;7.824;2022-10-31T16:26:49;15.50;99.90
8214;DHT22;4148;47.974;7.824;2022-10-31T16:29:32;15.80;99.90
8214;DHT22;4148;47.974;7.824;2022-10-31T16:32:00;15.90;99.90
8214;DHT22;4148;47.974;7.824;2022-10-31T16:34:28;15.90;99.90
8214;DHT22;4148;47.974;7.824;2022-10-31T16:36:55;15.90;99.90
8214;DHT22;4148;47.974;7.824;2022-10-31T16:39:23;15.70;99.90
8214;DHT22;4148;47.974;7.824;2022-10-31T16:41:54;15.60;99.90
8214;DHT22;4148;47.974;7.824;2022-10-31T16:44:24;15.50;99.90
8214;DHT22;4148;47.974;7.824;2022-10-31T16:47:11;15.40;99.90
8214;DHT22;4148;47.974;7.824;2022-10-31T16:49:41;15.40;99.90